createdAt,value
2023-05-04T00:02:12.432Z,97051.97
2023-05-04T00:04:42.783Z,97050.03
2023-05-04T00:07:10.820Z,97056.16
2023-05-04T00:09:38.733Z,97046.56
2023-05-04T00:12:07.964Z,97049.66
2023-05-04T00:14:36.122Z,97047.13
2023-05-04T00:17:06.393Z,97050.75
2023-05-04T00:19:34.668Z,97044.72
2023-05-04T00:22:04.066Z,97044.13
2023-05-04T00:24:31.921Z,97036.88
2023-05-04T00:27:00.156Z,97034.09
2023-05-04T00:29:28.011Z,97038.44
2023-05-04T00:31:56.157Z,97031.94
2023-05-04T00:34:24.381Z,97033.75
2023-05-04T00:36:52.249Z,97029.28
2023-05-04T00:39:21.503Z,97029.75
2023-05-04T00:41:49.359Z,97028.06
2023-05-04T00:44:17.286Z,97024.31
2023-05-04T00:46:45.588Z,97025.97
2023-05-04T00:49:13.772Z,97019.63
2023-05-04T00:51:41.973Z,97026.94
2023-05-04T00:54:10.398Z,97026.84
2023-05-04T00:56:42.280Z,97030.56
2023-05-04T00:59:10.335Z,97022.25
2023-05-04T01:01:38.298Z,97023.31
2023-05-04T01:04:06.830Z,97024.50
2023-05-04T01:06:44.727Z,97025.56
2023-05-04T01:09:20.270Z,97026.50
2023-05-04T01:11:55.980Z,97017.63
2023-05-04T01:14:24.444Z,97023.88
2023-05-04T01:17:01.890Z,97024.00
2023-05-04T01:19:31.217Z,97024.22
2023-05-04T01:22:01.545Z,97026.00
2023-05-04T01:24:31.239Z,97028.25
2023-05-04T01:27:05.794Z,97028.41
2023-05-04T01:29:39.855Z,97027.03
2023-05-04T01:32:09.412Z,97023.56
2023-05-04T01:34:39.272Z,97020.66
2023-05-04T01:37:08.666Z,97027.84
2023-05-04T01:39:37.458Z,97021.91
2023-05-04T01:42:07.602Z,97020.41
2023-05-04T01:44:35.508Z,97017.16
2023-05-04T01:47:03.513Z,97025.31
2023-05-04T01:49:32.751Z,97026.25
2023-05-04T01:52:00.688Z,97023.94
2023-05-04T01:54:29.868Z,97022.50
2023-05-04T01:56:58.649Z,97019.97
2023-05-04T01:59:26.924Z,97020.41
2023-05-04T02:01:55.842Z,97015.63
2023-05-04T02:04:24.096Z,97020.91
2023-05-04T02:06:51.964Z,97020.31
2023-05-04T02:09:19.837Z,97019.66
2023-05-04T02:11:49.092Z,97019.28
2023-05-04T02:14:16.934Z,97016.22
2023-05-04T02:16:44.786Z,97015.50
2023-05-04T02:19:13.384Z,97020.69
2023-05-04T02:21:43.840Z,97017.75
2023-05-04T02:24:11.716Z,97023.25
2023-05-04T02:26:39.920Z,97019.03
2023-05-04T02:29:09.737Z,97000.03
2023-05-04T02:31:38.109Z,97015.78
2023-05-04T02:34:06.792Z,97007.63
2023-05-04T02:36:34.643Z,97009.00
2023-05-04T02:39:03.076Z,97007.94
2023-05-04T02:41:30.915Z,97004.06
2023-05-04T02:43:58.868Z,97014.09
2023-05-04T02:46:28.132Z,97005.53
2023-05-04T02:48:56.177Z,97014.41
2023-05-04T02:51:24.375Z,97010.81
2023-05-04T02:53:52.238Z,97007.03
2023-05-04T02:56:20.118Z,97010.81
2023-05-04T02:58:47.978Z,97006.72
2023-05-04T03:01:15.965Z,97009.66
2023-05-04T03:03:45.322Z,97016.31
2023-05-04T03:06:13.169Z,97007.44
2023-05-04T03:08:41.165Z,97004.28
2023-05-04T03:11:09.028Z,97010.78
2023-05-04T03:13:36.881Z,97010.47
2023-05-04T03:16:05.527Z,97012.75
2023-05-04T03:21:21.412Z,97012.34
2023-05-04T03:23:49.597Z,97011.38
2023-05-04T03:26:17.910Z,97014.94
2023-05-04T03:28:46.732Z,97015.53
2023-05-04T03:31:15.244Z,97015.47
2023-05-04T03:33:43.574Z,97013.19
2023-05-04T03:36:11.531Z,97005.56
2023-05-04T03:38:43.099Z,97007.50
2023-05-04T03:41:11.638Z,97000.06
2023-05-04T03:43:40.372Z,97004.50
2023-05-04T03:46:08.309Z,97001.13
2023-05-04T03:48:36.329Z,97001.25
2023-05-04T03:51:04.864Z,97002.53
2023-05-04T03:53:34.377Z,96999.06
2023-05-04T03:56:04.441Z,96996.00
2023-05-04T03:58:32.729Z,96999.59
2023-05-04T04:01:04.362Z,96999.88
2023-05-04T04:03:33.084Z,96997.31
2023-05-04T04:06:01.776Z,96999.34
2023-05-04T04:08:29.619Z,96997.63
2023-05-04T04:10:57.449Z,96998.88
2023-05-04T04:13:27.878Z,96992.78
2023-05-04T04:15:55.703Z,96988.34
2023-05-04T04:18:24.556Z,96992.84
2023-05-04T04:20:52.515Z,96989.38
2023-05-04T04:23:21.821Z,96994.84
2023-05-04T04:25:49.944Z,96995.56
2023-05-04T04:28:18.035Z,96988.25
2023-05-04T04:30:47.340Z,96988.03
2023-05-04T04:33:15.174Z,96981.44
2023-05-04T04:35:43.135Z,96976.16
2023-05-04T04:38:10.986Z,96985.03
2023-05-04T04:40:38.813Z,96989.13
2023-05-04T04:43:06.664Z,96990.00
2023-05-04T04:45:35.149Z,96982.94
2023-05-04T04:48:04.586Z,96977.47
2023-05-04T04:50:32.728Z,96974.91
2023-05-04T04:53:00.876Z,96977.38
2023-05-04T04:55:28.714Z,96979.81
2023-05-04T04:57:56.569Z,96974.31
2023-05-04T05:00:26.210Z,96975.81
2023-05-04T05:02:54.225Z,96978.38
2023-05-04T05:05:23.954Z,96964.22
2023-05-04T05:07:51.933Z,96975.31
2023-05-04T05:10:21.161Z,96971.00
2023-05-04T05:12:49.843Z,96974.25
2023-05-04T05:15:18.170Z,96975.75
2023-05-04T05:17:46.144Z,96970.50
2023-05-04T05:20:15.189Z,96971.44
2023-05-04T05:22:44.458Z,96974.63
2023-05-04T05:25:12.338Z,96968.28
2023-05-04T05:27:40.137Z,96968.66
2023-05-04T05:30:09.040Z,96974.28
2023-05-04T05:32:37.422Z,96973.97
2023-05-04T05:35:06.296Z,96965.56
2023-05-04T05:37:34.283Z,96968.41
2023-05-04T05:40:06.422Z,96973.81
2023-05-04T05:42:34.487Z,96968.81
2023-05-04T05:45:04.426Z,96976.09
2023-05-04T05:47:32.279Z,96978.84
2023-05-04T05:50:00.379Z,96971.13
2023-05-04T05:52:28.230Z,96969.31
2023-05-04T05:54:56.343Z,96973.72
2023-05-04T05:57:25.527Z,96977.16
2023-05-04T05:59:53.480Z,96978.94
2023-05-04T06:02:21.441Z,96978.38
2023-05-04T06:04:49.460Z,96971.78
2023-05-04T06:07:18.399Z,96969.84
2023-05-04T06:09:46.357Z,96977.09
2023-05-04T06:12:15.167Z,96971.34
2023-05-04T06:14:44.469Z,96972.47
2023-05-04T06:17:12.330Z,96978.91
2023-05-04T06:19:40.233Z,96979.88
2023-05-04T06:22:08.254Z,96968.84
2023-05-04T06:24:36.014Z,96965.41
2023-05-04T06:27:04.293Z,96964.34
2023-05-04T06:29:32.187Z,96961.38
2023-05-04T06:32:02.279Z,96964.25
2023-05-04T06:34:30.493Z,96963.91
2023-05-04T06:36:58.313Z,96958.09
2023-05-04T06:39:26.288Z,96961.72
2023-05-04T06:41:54.973Z,96963.50
2023-05-04T06:44:22.891Z,96967.47
2023-05-04T06:46:51.265Z,96967.56
2023-05-04T06:49:21.529Z,96974.56
2023-05-04T06:51:49.622Z,96959.22
2023-05-04T06:54:18.118Z,96955.59
2023-05-04T06:56:46.240Z,96960.13
2023-05-04T06:59:14.838Z,96960.59
2023-05-04T07:01:45.410Z,96970.91
2023-05-04T07:04:13.283Z,96959.69
2023-05-04T07:06:43.864Z,96957.00
2023-05-04T07:09:11.988Z,96960.81
2023-05-04T07:11:40.800Z,96954.22
2023-05-04T07:14:10.392Z,96956.47
2023-05-04T07:16:39.302Z,96956.25
2023-05-04T07:19:08.538Z,96954.06
2023-05-04T07:21:36.417Z,96958.56
2023-05-04T07:24:06.943Z,96953.19
2023-05-04T07:26:34.884Z,96954.41
2023-05-04T07:29:02.869Z,96954.88
2023-05-04T07:31:30.976Z,96957.00
2023-05-04T07:33:58.970Z,96951.72
2023-05-04T07:36:27.925Z,96950.22
2023-05-04T07:38:55.821Z,96953.59
2023-05-04T07:41:24.983Z,96943.69
2023-05-04T07:43:52.830Z,96948.34
2023-05-04T07:46:20.709Z,96946.22
2023-05-04T07:48:49.334Z,96954.22
2023-05-04T07:51:17.292Z,96951.72
2023-05-04T07:53:45.119Z,96954.09
2023-05-04T07:56:14.220Z,96954.25
2023-05-04T07:58:43.404Z,96947.81
2023-05-04T08:01:11.344Z,96949.75
2023-05-04T08:03:39.373Z,96947.38
2023-05-04T08:06:09.200Z,96943.28
2023-05-04T08:08:37.050Z,96947.06
2023-05-04T08:11:18.752Z,96936.72
2023-05-04T08:13:50.541Z,96937.69
2023-05-04T08:16:18.875Z,96936.13
2023-05-04T08:18:46.713Z,96936.66
2023-05-04T08:21:14.549Z,96937.22
2023-05-04T08:23:42.462Z,96926.56
2023-05-04T08:26:10.835Z,96926.13
2023-05-04T08:28:41.073Z,96928.19
2023-05-04T08:31:10.911Z,96928.72
2023-05-04T08:33:38.765Z,96933.28
2023-05-04T08:36:08.724Z,96928.09
2023-05-04T08:38:37.065Z,96933.81
2023-05-04T08:41:05.232Z,96933.06
2023-05-04T08:43:35.795Z,96926.50
2023-05-04T08:46:04.930Z,96920.19
2023-05-04T08:48:34.957Z,96927.94
2023-05-04T08:51:04.468Z,96916.47
2023-05-04T08:53:33.714Z,96909.47
2023-05-04T08:56:04.577Z,96916.50
2023-05-04T08:58:37.820Z,96904.97
2023-05-04T09:01:08.431Z,96907.28
2023-05-04T09:03:38.857Z,96918.56
2023-05-04T09:06:08.211Z,96913.91
2023-05-04T09:08:36.110Z,96909.97
2023-05-04T09:11:04.130Z,96909.97
2023-05-04T09:13:32.227Z,96909.97
2023-05-04T09:16:00.354Z,96902.47
2023-05-04T09:18:38.788Z,96900.88
2023-05-04T09:21:07.458Z,96895.84
2023-05-04T09:23:46.232Z,96893.09
2023-05-04T09:26:14.182Z,96893.91
2023-05-04T09:28:42.164Z,96896.25
2023-05-04T09:31:11.755Z,96893.31
2023-05-04T09:33:41.667Z,96883.22
2023-05-04T09:36:17.027Z,96891.28
2023-05-04T09:38:45.505Z,96892.91
2023-05-04T09:41:13.423Z,96886.41
2023-05-04T09:43:41.819Z,96891.44
2023-05-04T09:46:17.112Z,96891.66
2023-05-04T09:48:56.918Z,96886.88
2023-05-04T09:51:26.520Z,96898.94
2023-05-04T09:53:54.921Z,96898.94
2023-05-04T09:56:33.680Z,96885.25
2023-05-04T09:59:01.517Z,96889.97
2023-05-04T10:01:30.600Z,96887.03
2023-05-04T10:04:00.007Z,96885.41
2023-05-04T10:06:30.197Z,96892.25
2023-05-04T10:09:00.405Z,96878.88
2023-05-04T10:11:29.989Z,96879.06
2023-05-04T10:13:58.229Z,96878.75
2023-05-04T10:16:34.661Z,96874.91
2023-05-04T10:19:23.669Z,96873.75
2023-05-04T10:22:04.026Z,96865.59
2023-05-04T10:25:07.377Z,96865.44
2023-05-04T10:27:46.665Z,96868.84
2023-05-04T10:30:18.475Z,96870.53
2023-05-04T10:32:46.573Z,96867.16
2023-05-04T10:35:18.659Z,96859.47
2023-05-04T10:37:54.365Z,96855.16
2023-05-04T10:40:36.647Z,96855.00
2023-05-04T10:43:05.416Z,96855.00
2023-05-04T10:45:37.739Z,96850.13
2023-05-04T10:48:07.927Z,96838.78
2023-05-04T10:50:44.873Z,96847.47
2023-05-04T10:53:13.765Z,96833.28
2023-05-04T10:55:42.655Z,96830.78
2023-05-04T10:58:14.780Z,96833.94
2023-05-04T11:00:44.742Z,96835.78
2023-05-04T11:03:14.052Z,96825.75
2023-05-04T11:05:44.787Z,96822.75
2023-05-04T11:08:16.964Z,96813.03
2023-05-04T11:10:45.253Z,96802.31
2023-05-04T11:13:13.235Z,96802.97
2023-05-04T11:15:48.978Z,96804.47
2023-05-04T11:18:27.259Z,96795.97
2023-05-04T11:20:56.711Z,96800.31
2023-05-04T11:23:24.631Z,96804.16
2023-05-04T11:25:52.734Z,96801.59
2023-05-04T11:28:20.551Z,96794.06
2023-05-04T11:30:48.632Z,96787.38
2023-05-04T11:33:17.233Z,96787.72
2023-05-04T11:35:45.602Z,96788.91
2023-05-04T11:38:20.106Z,96793.06
2023-05-04T11:40:49.776Z,96783.53
2023-05-04T11:43:18.537Z,96774.16
2023-05-04T11:45:49.542Z,96777.19
2023-05-04T11:48:18.703Z,96782.53
2023-05-04T11:50:47.631Z,96776.00
2023-05-04T11:53:21.497Z,96776.81
2023-05-04T11:55:49.762Z,96769.13
2023-05-04T11:58:25.299Z,96759.91
2023-05-04T12:00:56.967Z,96756.22
2023-05-04T12:03:32.680Z,96755.84
2023-05-04T12:06:03.919Z,96756.97
2023-05-04T12:08:35.141Z,96757.66
2023-05-04T12:11:10.628Z,96766.72
2023-05-04T12:13:38.571Z,96765.91
2023-05-04T12:16:13.645Z,96762.09
2023-05-04T12:18:42.180Z,96762.28
2023-05-04T12:21:11.559Z,96746.84
2023-05-04T12:23:42.570Z,96762.84
2023-05-04T12:26:11.708Z,96747.22
2023-05-04T12:28:41.122Z,96751.59
2023-05-04T12:31:09.513Z,96752.22
2023-05-04T12:33:37.428Z,96754.97
2023-05-04T12:36:06.320Z,96751.31
2023-05-04T12:38:34.334Z,96752.34
2023-05-04T12:41:04.458Z,96751.06
2023-05-04T12:43:33.130Z,96744.16
2023-05-04T12:46:01.317Z,96739.38
2023-05-04T12:48:31.909Z,96733.09
2023-05-04T12:51:00.496Z,96732.66
2023-05-04T12:53:30.081Z,96733.53
2023-05-04T12:55:57.975Z,96731.19
2023-05-04T12:58:27.542Z,96720.81
2023-05-04T13:00:56.028Z,96726.09
2023-05-04T13:03:23.936Z,96712.91
2023-05-04T13:05:51.864Z,96707.63
2023-05-04T13:08:19.992Z,96702.69
2023-05-04T13:10:48.100Z,96695.25
2023-05-04T13:13:17.857Z,96682.91
2023-05-04T13:15:51.255Z,96686.91
2023-05-04T13:18:19.357Z,96677.72
2023-05-04T13:20:47.285Z,96678.00
2023-05-04T13:23:15.299Z,96676.94
2023-05-04T13:25:43.281Z,96676.19
2023-05-04T13:28:11.118Z,96676.38
2023-05-04T13:30:39.017Z,96678.13
2023-05-04T13:33:20.875Z,96663.69
2023-05-04T13:35:57.990Z,96658.69
2023-05-04T13:38:26.987Z,96667.13
2023-05-04T13:40:54.973Z,96657.88
2023-05-04T13:43:23.497Z,96654.75
2023-05-04T13:45:51.426Z,96664.06
2023-05-04T13:48:20.621Z,96652.59
2023-05-04T13:50:48.430Z,96654.25
2023-05-04T13:53:16.342Z,96654.25
2023-05-04T13:55:44.285Z,96644.72
2023-05-04T13:58:12.086Z,96644.28
2023-05-04T14:00:40.053Z,96633.91
2023-05-04T14:03:08.013Z,96637.81
2023-05-04T14:05:37.312Z,96632.34
2023-05-04T14:08:05.287Z,96621.22
2023-05-04T14:10:33.757Z,96621.88
2023-05-04T14:13:02.780Z,96613.06
2023-05-04T14:15:31.996Z,96610.19
2023-05-04T14:17:59.942Z,96602.59
2023-05-04T14:20:27.929Z,96597.03
2023-05-04T14:22:57.133Z,96594.97
2023-05-04T14:25:24.996Z,96607.19
2023-05-04T14:27:52.849Z,96599.44
2023-05-04T14:30:20.826Z,96596.47
2023-05-04T14:32:48.685Z,96587.88
2023-05-04T14:35:17.535Z,96584.25
2023-05-04T14:37:49.266Z,96588.91
2023-05-04T14:40:18.543Z,96593.16
2023-05-04T14:42:47.091Z,96579.81
2023-05-04T14:45:16.196Z,96575.84
2023-05-04T14:47:44.053Z,96574.00
2023-05-04T14:50:13.053Z,96575.28
2023-05-04T14:52:40.918Z,96574.78
2023-05-04T14:55:10.154Z,96577.47
2023-05-04T14:57:39.357Z,96575.00
2023-05-04T15:00:09.492Z,96566.03
2023-05-04T15:02:38.505Z,96564.03
2023-05-04T15:05:07.542Z,96562.22
2023-05-04T15:07:35.492Z,96567.06
2023-05-04T15:10:04.456Z,96568.84
2023-05-04T15:12:32.435Z,96554.72
2023-05-04T15:15:01.715Z,96554.16
2023-05-04T15:17:30.708Z,96554.41
2023-05-04T15:19:58.541Z,96550.94
2023-05-04T15:22:26.500Z,96552.41
2023-05-04T15:24:55.591Z,96556.13
2023-05-04T15:27:23.966Z,96563.63
2023-05-04T15:29:51.925Z,96571.50
2023-05-04T15:32:21.502Z,96562.66
2023-05-04T15:35:01.122Z,96563.31
2023-05-04T15:37:32.494Z,96568.69
2023-05-04T15:40:02.469Z,96573.63
2023-05-04T15:42:31.191Z,96565.63
2023-05-04T15:44:59.389Z,96563.84
2023-05-04T15:47:28.949Z,96563.00
2023-05-04T15:49:57.184Z,96557.63
2023-05-04T15:52:25.437Z,96555.16
2023-05-04T15:54:53.608Z,96555.31
2023-05-04T15:57:21.830Z,96553.28
2023-05-04T15:59:49.919Z,96553.47
2023-05-04T16:02:18.725Z,96545.59
2023-05-04T16:04:47.993Z,96553.38
2023-05-04T16:07:16.001Z,96551.34
2023-05-04T16:09:43.903Z,96553.38
2023-05-04T16:12:11.796Z,96553.59
2023-05-04T16:14:39.985Z,96548.78
2023-05-04T16:17:08.235Z,96549.22
2023-05-04T16:19:36.519Z,96545.28
2023-05-04T16:22:05.750Z,96542.13
2023-05-04T16:24:34.112Z,96548.34
2023-05-04T16:27:01.936Z,96535.47
2023-05-04T16:29:29.729Z,96535.09
2023-05-04T16:31:57.657Z,96534.63
2023-05-04T16:34:25.670Z,96535.94
2023-05-04T16:36:53.641Z,96529.06
2023-05-04T16:39:22.877Z,96528.22
2023-05-04T16:41:50.669Z,96533.16
2023-05-04T16:44:18.519Z,96531.31
2023-05-04T16:46:46.598Z,96527.59
2023-05-04T16:49:14.908Z,96529.44
2023-05-04T16:51:43.379Z,96529.44
2023-05-04T16:54:11.295Z,96530.00
2023-05-04T16:56:40.696Z,96538.06
2023-05-04T16:59:08.618Z,96532.91
2023-05-04T17:01:36.560Z,96520.88
2023-05-04T17:04:04.481Z,96524.28
2023-05-04T17:06:32.484Z,96530.72
2023-05-04T17:09:00.877Z,96528.97
2023-05-04T17:11:28.799Z,96528.69
2023-05-04T17:13:58.340Z,96520.81
2023-05-04T17:16:26.261Z,96516.00
2023-05-04T17:18:54.155Z,96522.97
2023-05-04T17:21:22.136Z,96514.44
2023-05-04T17:23:49.931Z,96516.22
2023-05-04T17:26:17.812Z,96522.78
2023-05-04T17:28:45.651Z,96523.34
2023-05-04T17:31:15.733Z,96521.41
2023-05-04T17:33:43.604Z,96515.19
2023-05-04T17:36:12.380Z,96516.78
2023-05-04T17:38:41.193Z,96519.66
2023-05-04T17:41:09.813Z,96517.69
2023-05-04T17:43:37.962Z,96517.44
2023-05-04T17:46:05.992Z,96520.88
2023-05-04T17:48:36.381Z,96521.41
2023-05-04T17:51:08.270Z,96521.16
2023-05-04T17:53:36.411Z,96530.56
2023-05-04T17:56:04.540Z,96531.56
2023-05-04T17:58:32.384Z,96533.53
2023-05-04T18:01:00.182Z,96536.06
2023-05-04T18:03:28.153Z,96535.78
2023-05-04T18:05:57.550Z,96532.81
2023-05-04T18:08:25.454Z,96536.88
2023-05-04T18:10:53.336Z,96534.25
2023-05-04T18:13:21.283Z,96538.69
2023-05-04T18:15:49.235Z,96542.72
2023-05-04T18:18:17.071Z,96538.09
2023-05-04T18:20:44.949Z,96548.72
2023-05-04T18:23:14.108Z,96556.47
2023-05-04T18:25:41.938Z,96549.94
2023-05-04T18:28:09.780Z,96554.19
2023-05-04T18:30:37.564Z,96554.88
2023-05-04T18:33:05.603Z,96555.63
2023-05-04T18:35:33.556Z,96560.00
2023-05-04T18:38:01.417Z,96566.88
2023-05-04T18:40:31.668Z,96565.91
2023-05-04T18:42:59.522Z,96575.47
2023-05-04T18:45:27.858Z,96568.97
2023-05-04T18:47:55.901Z,96576.69
2023-05-04T18:50:24.303Z,96567.88
2023-05-04T18:52:54.030Z,96577.25
2023-05-04T18:55:22.234Z,96577.13
2023-05-04T18:57:51.560Z,96582.00
2023-05-04T19:00:19.932Z,96576.50
2023-05-04T19:02:47.825Z,96592.06
2023-05-04T19:05:16.026Z,96597.25
2023-05-04T19:07:43.840Z,96587.06
2023-05-04T19:10:12.117Z,96595.78
2023-05-04T19:12:39.976Z,96598.97
2023-05-04T19:15:10.522Z,96604.66
2023-05-04T19:17:38.360Z,96613.22
2023-05-04T19:20:08.239Z,96603.19
2023-05-04T19:22:36.440Z,96609.00
2023-05-04T19:25:06.459Z,96619.19
2023-05-04T19:27:34.367Z,96616.38
2023-05-04T19:30:02.229Z,96613.19
2023-05-04T19:32:32.808Z,96617.69
2023-05-04T19:35:00.773Z,96619.06
2023-05-04T19:37:28.632Z,96624.03
2023-05-04T19:39:57.744Z,96620.06
2023-05-04T19:42:25.784Z,96625.72
2023-05-04T19:44:53.612Z,96630.22
2023-05-04T19:47:21.940Z,96623.72
2023-05-04T19:49:51.224Z,96633.06
2023-05-04T19:52:19.084Z,96631.53
2023-05-04T19:54:48.563Z,96637.75
2023-05-04T19:57:16.560Z,96635.38
2023-05-04T19:59:46.710Z,96644.56
2023-05-04T20:02:15.054Z,96637.22
2023-05-04T20:04:42.873Z,96640.53
2023-05-04T20:07:12.198Z,96640.69
2023-05-04T20:09:40.229Z,96650.03
2023-05-04T20:12:08.167Z,96647.69
2023-05-04T20:14:36.140Z,96646.34
2023-05-04T20:17:04.205Z,96647.81
2023-05-04T20:19:32.047Z,96642.78
2023-05-04T20:21:59.971Z,96643.94
2023-05-04T20:24:29.151Z,96646.94
2023-05-04T20:26:57.085Z,96644.56
2023-05-04T20:29:24.928Z,96645.75
2023-05-04T20:31:53.042Z,96636.84
2023-05-04T20:34:20.943Z,96641.38
2023-05-04T20:36:49.428Z,96640.88
2023-05-04T20:39:17.254Z,96642.19
2023-05-04T20:41:46.530Z,96647.50
2023-05-04T20:44:14.618Z,96643.47
2023-05-04T20:46:42.457Z,96645.81
2023-05-04T20:49:10.897Z,96645.13
2023-05-04T20:51:39.106Z,96644.63
2023-05-04T20:54:07.004Z,96642.09
2023-05-04T20:56:34.911Z,96648.75
2023-05-04T20:59:04.225Z,96641.38
2023-05-04T21:01:32.099Z,96640.72
2023-05-04T21:04:00.132Z,96648.84
2023-05-04T21:06:30.101Z,96642.16
2023-05-04T21:08:58.279Z,96643.31
2023-05-04T21:11:26.133Z,96644.31
2023-05-04T21:13:54.547Z,96634.81
2023-05-04T21:16:23.918Z,96633.28
2023-05-04T21:18:51.985Z,96630.78
2023-05-04T21:21:19.781Z,96632.91
2023-05-04T21:23:47.589Z,96636.56
2023-05-04T21:26:15.800Z,96632.53
2023-05-04T21:28:43.910Z,96634.84
2023-05-04T21:31:12.020Z,96623.34
2023-05-04T21:33:41.281Z,96633.00
2023-05-04T21:36:13.795Z,96630.00
2023-05-04T21:38:42.088Z,96631.00
2023-05-04T21:41:13.946Z,96631.28
2023-05-04T21:43:42.142Z,96633.44
2023-05-04T21:46:11.934Z,96625.91
2023-05-04T21:48:41.569Z,96627.22
2023-05-04T21:51:09.424Z,96625.66
2023-05-04T21:53:37.348Z,96631.44
2023-05-04T21:56:08.063Z,96635.22
2023-05-04T21:58:37.127Z,96636.34
2023-05-04T22:01:05.703Z,96630.81
2023-05-04T22:03:33.792Z,96635.59
2023-05-04T22:06:03.228Z,96632.41
2023-05-04T22:08:31.273Z,96636.69
2023-05-04T22:10:59.580Z,96638.44
2023-05-04T22:13:27.851Z,96634.69
2023-05-04T22:15:55.838Z,96631.22
2023-05-04T22:18:23.788Z,96635.28
2023-05-04T22:20:51.910Z,96634.47
2023-05-04T22:23:21.058Z,96632.72
2023-05-04T22:25:48.872Z,96641.00
2023-05-04T22:28:16.753Z,96622.97
2023-05-04T22:30:44.712Z,96626.91
2023-05-04T22:33:12.602Z,96628.34
2023-05-04T22:35:40.734Z,96634.69
2023-05-04T22:38:08.656Z,96631.06
2023-05-04T22:40:40.198Z,96636.41
2023-05-04T22:43:08.473Z,96639.38
2023-05-04T22:45:36.957Z,96640.34
2023-05-04T22:48:05.154Z,96646.94
2023-05-04T22:50:34.049Z,96648.25
2023-05-04T22:53:01.958Z,96647.53
2023-05-04T22:55:30.280Z,96652.13
2023-05-04T22:57:59.560Z,96655.25
2023-05-04T23:00:27.843Z,96651.88
2023-05-04T23:02:56.770Z,96652.72
2023-05-04T23:05:24.942Z,96646.03
2023-05-04T23:07:53.089Z,96652.19
2023-05-04T23:10:21.363Z,96649.66
2023-05-04T23:12:49.233Z,96649.28
2023-05-04T23:15:19.142Z,96658.38
2023-05-04T23:17:46.982Z,96664.16
2023-05-04T23:20:14.849Z,96671.13
2023-05-04T23:22:42.739Z,96670.44
2023-05-04T23:25:10.930Z,96670.72
2023-05-04T23:27:39.566Z,96670.47
2023-05-04T23:30:08.995Z,96673.28
2023-05-04T23:32:38.977Z,96667.53
2023-05-04T23:35:08.092Z,96665.06
2023-05-04T23:37:35.986Z,96671.19
2023-05-04T23:40:03.816Z,96677.94
2023-05-04T23:42:31.710Z,96675.41
2023-05-04T23:44:59.473Z,96675.00
2023-05-04T23:47:27.298Z,96668.16
2023-05-04T23:49:56.546Z,96677.28
2023-05-04T23:52:24.329Z,96671.38
2023-05-04T23:54:54.052Z,96674.19
2023-05-04T23:57:21.915Z,96669.47
2023-05-04T23:59:49.730Z,96680.09
